createdAt,value
2023-03-21T00:00:36.089Z,6.50
2023-03-21T00:02:44.209Z,6.20
2023-03-21T00:04:54.922Z,6.07
2023-03-21T00:07:05.544Z,6.30
2023-03-21T00:09:13.877Z,4.88
2023-03-21T00:11:22.135Z,6.63
2023-03-21T00:13:32.880Z,5.65
2023-03-21T00:16:04.490Z,5.50
2023-03-21T00:18:14.565Z,6.40
2023-03-21T00:20:23.088Z,5.70
2023-03-21T00:22:34.196Z,5.97
2023-03-21T00:24:42.154Z,5.30
2023-03-21T00:26:50.103Z,5.65
2023-03-21T00:28:58.066Z,5.15
2023-03-21T00:31:07.444Z,5.57
2023-03-21T00:33:22.394Z,6.13
2023-03-21T00:36:05.107Z,5.55
2023-03-21T00:38:03.869Z,5.50
2023-03-21T00:40:26.570Z,5.50
2023-03-21T00:42:37.092Z,5.70
2023-03-21T00:44:45.653Z,5.60
2023-03-21T00:47:06.324Z,5.20
2023-03-21T00:49:15.536Z,4.90
2023-03-21T00:51:26.758Z,5.85
2023-03-21T00:53:37.734Z,6.10
2023-03-21T00:55:45.648Z,5.75
2023-03-21T00:58:01.458Z,5.93
2023-03-21T01:00:12.059Z,5.82
2023-03-21T01:02:23.393Z,6.85
2023-03-21T01:04:31.783Z,6.43
2023-03-21T01:06:41.835Z,6.30
2023-03-21T01:08:53.736Z,6.28
2023-03-21T01:11:05.927Z,6.65
2023-03-21T01:13:15.001Z,7.03
2023-03-21T01:15:22.925Z,7.65
2023-03-21T01:17:30.748Z,7.25
2023-03-21T01:19:51.195Z,7.28
2023-03-21T01:22:00.283Z,8.25
2023-03-21T01:24:11.504Z,8.23
2023-03-21T01:26:20.065Z,6.90
2023-03-21T01:28:30.310Z,7.28
2023-03-21T01:30:41.967Z,6.70
2023-03-21T01:32:50.446Z,7.22
2023-03-21T01:34:58.490Z,7.15
2023-03-21T01:37:09.860Z,7.15
2023-03-21T01:39:27.979Z,6.03
2023-03-21T01:41:43.742Z,6.75
2023-03-21T01:44:04.343Z,5.60
2023-03-21T01:46:54.432Z,6.38
2023-03-21T01:49:34.546Z,7.68
2023-03-21T01:52:35.294Z,7.38
2023-03-21T01:54:51.190Z,7.57
2023-03-21T01:57:02.806Z,7.50
2023-03-21T01:59:17.526Z,7.70
2023-03-21T02:01:48.565Z,8.05
2023-03-21T02:04:04.064Z,6.95
2023-03-21T02:06:18.482Z,7.40
2023-03-21T02:08:39.713Z,7.65
2023-03-21T02:10:55.182Z,7.10
2023-03-21T02:13:18.806Z,6.63
2023-03-21T02:15:29.243Z,7.18
2023-03-21T02:17:50.351Z,6.50
2023-03-21T02:20:49.719Z,6.45
2023-03-21T02:23:16.771Z,7.32
2023-03-21T02:25:52.765Z,7.65
2023-03-21T02:28:12.637Z,7.20
2023-03-21T02:30:51.665Z,6.95
2023-03-21T02:33:16.213Z,7.80
2023-03-21T02:35:53.703Z,7.30
2023-03-21T02:38:17.992Z,7.45
2023-03-21T02:40:31.612Z,7.05
2023-03-21T02:42:54.712Z,7.68
2023-03-21T02:45:22.308Z,8.02
2023-03-21T02:47:43.457Z,6.70
2023-03-21T02:49:57.789Z,7.70
2023-03-21T02:52:25.506Z,7.40
2023-03-21T02:54:48.808Z,7.47
2023-03-21T02:57:03.772Z,7.40
2023-03-21T02:59:14.501Z,7.05
2023-03-21T03:01:26.300Z,6.63
2023-03-21T03:03:39.050Z,6.43
2023-03-21T03:05:51.072Z,6.00
2023-03-21T03:08:41.211Z,6.25
2023-03-21T03:11:16.981Z,7.13
2023-03-21T03:13:37.994Z,7.88
2023-03-21T03:15:54.661Z,7.55
2023-03-21T03:18:13.400Z,7.88
2023-03-21T03:20:27.585Z,7.85
2023-03-21T03:22:44.882Z,7.45
2023-03-21T03:25:04.863Z,8.65
2023-03-21T03:27:30.597Z,8.32
2023-03-21T03:29:51.864Z,9.00
2023-03-21T03:32:06.971Z,10.25
2023-03-21T03:34:24.163Z,8.80
2023-03-21T03:36:39.153Z,8.88
2023-03-21T03:38:54.425Z,10.15
2023-03-21T03:41:07.855Z,9.20
2023-03-21T03:43:32.984Z,9.85
2023-03-21T03:45:46.850Z,9.13
2023-03-21T03:48:02.936Z,9.30
2023-03-21T03:50:20.877Z,8.93
2023-03-21T03:52:32.813Z,8.25
2023-03-21T03:54:49.035Z,8.85
2023-03-21T03:56:57.885Z,9.00
2023-03-21T03:59:10.086Z,10.57
2023-03-21T04:01:37.759Z,9.45
2023-03-21T04:03:51.041Z,10.65
2023-03-21T04:06:02.858Z,9.20
2023-03-21T04:08:11.012Z,9.82
2023-03-21T04:10:25.313Z,10.90
2023-03-21T04:12:33.414Z,11.63
2023-03-21T04:15:11.096Z,11.00
2023-03-21T04:17:23.622Z,10.02
2023-03-21T04:19:32.557Z,10.63
2023-03-21T04:21:41.289Z,9.90
2023-03-21T04:23:49.589Z,11.52
2023-03-21T04:25:57.725Z,10.63
2023-03-21T04:28:18.328Z,10.27
2023-03-21T04:30:37.078Z,10.20
2023-03-21T04:32:54.258Z,10.18
2023-03-21T04:35:02.859Z,10.68
2023-03-21T04:37:12.162Z,10.65
2023-03-21T04:39:22.567Z,10.68
2023-03-21T04:41:31.222Z,9.90
2023-03-21T04:43:40.684Z,9.75
2023-03-21T04:45:52.222Z,9.70
2023-03-21T04:48:00.513Z,11.43
2023-03-21T04:50:09.503Z,10.13
2023-03-21T04:52:17.898Z,10.60
2023-03-21T04:54:25.749Z,10.07
2023-03-21T04:56:34.561Z,10.85
2023-03-21T04:58:43.306Z,9.52
2023-03-21T05:00:54.210Z,9.70
2023-03-21T05:03:02.382Z,10.23
2023-03-21T05:05:12.396Z,9.98
2023-03-21T05:07:20.341Z,9.35
2023-03-21T05:09:28.298Z,10.05
2023-03-21T05:11:38.837Z,10.55
2023-03-21T05:13:47.137Z,10.30
2023-03-21T05:15:58.195Z,9.43
2023-03-21T05:18:13.817Z,10.38
2023-03-21T05:20:44.312Z,9.75
2023-03-21T05:22:52.617Z,10.55
2023-03-21T05:25:00.453Z,10.00
2023-03-21T05:27:34.294Z,11.07
2023-03-21T05:29:43.932Z,10.15
2023-03-21T05:31:59.162Z,10.35
2023-03-21T05:34:07.029Z,8.95
2023-03-21T05:36:16.214Z,9.63
2023-03-21T05:38:24.462Z,9.73
2023-03-21T05:40:34.514Z,9.70
2023-03-21T05:42:43.418Z,8.75
2023-03-21T05:45:07.176Z,10.15
2023-03-21T05:47:20.974Z,10.57
2023-03-21T05:49:28.902Z,9.38
2023-03-21T05:51:40.606Z,9.10
2023-03-21T05:53:48.853Z,10.20
2023-03-21T05:55:57.977Z,10.27
2023-03-21T05:58:22.324Z,8.80
2023-03-21T06:00:32.285Z,8.88
2023-03-21T06:02:56.871Z,8.90
2023-03-21T06:05:26.107Z,8.13
2023-03-21T06:07:35.953Z,8.23
2023-03-21T06:09:45.156Z,9.57
2023-03-21T06:11:56.224Z,10.85
2023-03-21T06:14:11.374Z,9.05
2023-03-21T06:16:20.193Z,9.98
2023-03-21T06:18:31.501Z,9.95
2023-03-21T06:20:54.628Z,9.45
2023-03-21T06:23:02.730Z,8.43
2023-03-21T06:25:12.926Z,8.90
2023-03-21T06:27:23.527Z,9.85
2023-03-21T06:29:34.945Z,9.43
2023-03-21T06:31:43.308Z,9.57
2023-03-21T06:33:54.536Z,9.90
2023-03-21T06:36:02.489Z,9.15
2023-03-21T06:38:11.832Z,10.38
2023-03-21T06:40:21.224Z,9.15
2023-03-21T06:42:30.443Z,10.43
2023-03-21T06:44:43.370Z,9.65
2023-03-21T06:46:55.745Z,9.75
2023-03-21T06:49:06.883Z,9.50
2023-03-21T06:51:15.930Z,8.43
2023-03-21T06:53:36.469Z,9.40
2023-03-21T06:56:06.488Z,9.23
2023-03-21T06:58:16.624Z,9.75
2023-03-21T07:00:26.465Z,9.60
2023-03-21T07:02:34.528Z,10.52
2023-03-21T07:04:50.341Z,8.30
2023-03-21T07:07:02.396Z,9.13
2023-03-21T07:09:10.876Z,9.75
2023-03-21T07:11:19.422Z,8.15
2023-03-21T07:13:28.967Z,9.65
2023-03-21T07:15:44.173Z,8.77
2023-03-21T07:17:53.469Z,9.88
2023-03-21T07:20:05.249Z,8.77
2023-03-21T07:22:13.394Z,8.48
2023-03-21T07:24:21.360Z,8.30
2023-03-21T07:26:29.353Z,7.82
2023-03-21T07:28:39.246Z,8.70
2023-03-21T07:30:48.216Z,7.97
2023-03-21T07:32:56.241Z,7.65
2023-03-21T07:35:08.624Z,8.10
2023-03-21T07:37:17.320Z,8.50
2023-03-21T07:39:26.261Z,7.43
2023-03-21T07:41:34.264Z,7.60
2023-03-21T07:43:53.785Z,7.80
2023-03-21T07:46:02.856Z,7.00
2023-03-21T07:48:11.048Z,6.97
2023-03-21T07:50:22.698Z,7.88
2023-03-21T07:52:30.756Z,7.25
2023-03-21T07:54:38.605Z,7.90
2023-03-21T07:56:46.550Z,7.07
2023-03-21T07:58:54.422Z,6.70
2023-03-21T08:01:02.281Z,6.55
2023-03-21T08:03:10.270Z,6.15
2023-03-21T08:05:20.972Z,6.35
2023-03-21T08:07:30.846Z,6.57
2023-03-21T08:09:39.848Z,5.68
2023-03-21T08:11:50.834Z,4.93
2023-03-21T08:13:58.735Z,5.15
2023-03-21T08:16:08.784Z,5.05
2023-03-21T08:18:18.640Z,5.10
2023-03-21T08:20:30.029Z,5.50
2023-03-21T08:22:38.809Z,5.45
2023-03-21T08:24:46.741Z,5.63
2023-03-21T08:26:54.617Z,5.00
2023-03-21T08:29:02.803Z,4.95
2023-03-21T08:31:11.613Z,5.50
2023-03-21T08:33:20.400Z,5.10
2023-03-21T08:36:07.696Z,4.38
2023-03-21T08:38:35.751Z,4.60
2023-03-21T08:40:45.075Z,5.15
2023-03-21T08:42:53.097Z,5.20
2023-03-21T08:45:00.919Z,4.88
2023-03-21T08:47:09.492Z,4.20
2023-03-21T08:49:17.282Z,4.35
2023-03-21T08:51:27.795Z,5.22
2023-03-21T08:53:36.123Z,6.55
2023-03-21T08:55:43.952Z,6.65
2023-03-21T08:57:52.470Z,7.72
2023-03-21T09:00:00.550Z,6.20
2023-03-21T09:02:08.493Z,6.15
2023-03-21T09:04:19.085Z,6.20
2023-03-21T09:06:30.186Z,5.85
2023-03-21T09:08:38.263Z,4.45
2023-03-21T09:10:46.196Z,5.38
2023-03-21T09:12:55.993Z,4.55
2023-03-21T09:15:04.951Z,4.88
2023-03-21T09:17:12.756Z,3.95
2023-03-21T09:19:24.441Z,4.30
2023-03-21T09:21:35.686Z,3.47
2023-03-21T09:23:45.286Z,3.85
2023-03-21T09:25:52.957Z,3.45
2023-03-21T09:28:00.887Z,3.13
2023-03-21T09:30:10.289Z,3.70
2023-03-21T09:32:18.248Z,3.95
2023-03-21T09:34:26.644Z,3.95
2023-03-21T09:36:38.229Z,4.15
2023-03-21T09:38:48.126Z,4.50
2023-03-21T09:41:07.940Z,4.65
2023-03-21T09:43:28.224Z,3.90
2023-03-21T09:45:43.633Z,4.00
2023-03-21T09:47:53.430Z,4.38
2023-03-21T09:50:14.006Z,4.32
2023-03-21T09:52:29.174Z,4.25
2023-03-21T09:54:43.064Z,4.50
2023-03-21T09:56:56.431Z,3.90
2023-03-21T09:59:07.864Z,4.88
2023-03-21T10:01:28.466Z,3.80
2023-03-21T10:03:38.499Z,3.97
2023-03-21T10:05:48.664Z,3.60
2023-03-21T10:08:05.659Z,3.60
2023-03-21T10:10:20.146Z,3.90
2023-03-21T10:12:30.818Z,3.72
2023-03-21T10:14:42.306Z,4.10
2023-03-21T10:16:53.244Z,4.75
2023-03-21T10:19:03.533Z,4.97
2023-03-21T10:21:37.335Z,5.07
2023-03-21T10:23:47.433Z,4.03
2023-03-21T10:26:02.202Z,3.60
2023-03-21T10:28:18.922Z,3.85
2023-03-21T10:30:43.365Z,3.13
2023-03-21T10:32:51.293Z,3.73
2023-03-21T10:35:01.255Z,3.65
2023-03-21T10:37:10.025Z,3.50
2023-03-21T10:39:27.541Z,3.57
2023-03-21T10:41:36.121Z,3.17
2023-03-21T10:43:46.061Z,3.10
2023-03-21T10:45:54.089Z,2.83
2023-03-21T10:48:02.345Z,2.97
2023-03-21T10:50:16.216Z,3.30
2023-03-21T10:52:26.570Z,2.90
2023-03-21T10:54:38.422Z,3.47
2023-03-21T10:56:54.155Z,3.17
2023-03-21T10:59:04.420Z,3.45
2023-03-21T11:01:17.024Z,3.20
2023-03-21T11:03:29.094Z,2.90
2023-03-21T11:05:40.151Z,3.50
2023-03-21T11:07:48.541Z,3.40
2023-03-21T11:10:01.980Z,3.88
2023-03-21T11:12:33.684Z,3.10
2023-03-21T11:14:43.553Z,2.95
2023-03-21T11:16:51.741Z,3.08
2023-03-21T11:19:04.167Z,3.10
2023-03-21T11:21:14.680Z,2.78
2023-03-21T11:23:23.285Z,2.80
2023-03-21T11:25:39.263Z,2.88
2023-03-21T11:27:51.484Z,2.80
2023-03-21T11:30:05.274Z,3.13
2023-03-21T11:32:15.194Z,2.70
2023-03-21T11:34:29.927Z,2.70
2023-03-21T11:36:41.674Z,2.15
2023-03-21T11:38:53.286Z,2.50
2023-03-21T11:41:05.877Z,2.55
2023-03-21T11:43:32.042Z,2.10
2023-03-21T11:45:41.769Z,2.50
2023-03-21T11:47:51.012Z,2.40
2023-03-21T11:50:04.866Z,2.25
2023-03-21T11:52:23.626Z,2.13
2023-03-21T11:54:41.989Z,1.95
2023-03-21T11:56:57.005Z,1.90
2023-03-21T11:59:16.535Z,1.95
2023-03-21T12:01:30.367Z,1.70
2023-03-21T12:03:55.101Z,1.55
2023-03-21T12:06:05.033Z,1.80
2023-03-21T12:08:28.356Z,1.98
2023-03-21T12:10:41.968Z,1.63
2023-03-21T12:13:00.400Z,1.75
2023-03-21T12:15:17.602Z,1.50
2023-03-21T12:17:37.375Z,1.80
2023-03-21T12:20:21.248Z,1.60
2023-03-21T12:22:41.117Z,1.75
2023-03-21T12:24:53.869Z,1.80
2023-03-21T12:27:07.985Z,2.00
2023-03-21T12:29:44.416Z,1.77
2023-03-21T12:32:06.764Z,2.10
2023-03-21T12:34:31.352Z,1.85
2023-03-21T12:36:51.635Z,1.80
2023-03-21T12:39:11.029Z,2.20
2023-03-21T12:41:27.550Z,1.85
2023-03-21T12:43:45.051Z,1.77
2023-03-21T12:45:59.229Z,2.08
2023-03-21T12:48:22.369Z,1.92
2023-03-21T12:50:37.599Z,2.50
2023-03-21T12:52:48.157Z,1.67
2023-03-21T12:55:02.256Z,2.22
2023-03-21T12:57:14.997Z,1.60
2023-03-21T12:59:32.872Z,2.80
2023-03-21T13:01:46.136Z,2.60
2023-03-21T13:04:11.001Z,2.80
2023-03-21T13:06:20.964Z,5.05
2023-03-21T13:08:33.021Z,4.90
2023-03-21T13:10:42.550Z,4.00
2023-03-21T13:13:07.841Z,2.15
2023-03-21T13:15:48.694Z,1.70
2023-03-21T13:18:05.453Z,2.42
2023-03-21T13:20:22.882Z,2.38
2023-03-21T13:22:33.532Z,1.75
2023-03-21T13:24:44.740Z,1.80
2023-03-21T13:26:56.319Z,1.65
2023-03-21T13:29:04.401Z,1.80
2023-03-21T13:31:21.802Z,2.13
2023-03-21T13:33:35.760Z,2.80
2023-03-21T13:35:46.038Z,2.20
2023-03-21T13:37:56.706Z,2.40
2023-03-21T13:40:09.498Z,2.53
2023-03-21T13:42:26.164Z,2.65
2023-03-21T13:44:42.067Z,2.10
2023-03-21T13:46:57.673Z,2.47
2023-03-21T13:49:18.672Z,2.47
2023-03-21T13:51:47.562Z,2.30
2023-03-21T13:54:02.950Z,2.30
2023-03-21T13:56:28.057Z,2.20
2023-03-21T13:58:37.963Z,2.80
2023-03-21T14:00:46.242Z,1.92
2023-03-21T14:02:59.804Z,2.10
2023-03-21T14:05:22.927Z,2.00
2023-03-21T14:07:32.978Z,2.40
2023-03-21T14:09:45.139Z,2.17
2023-03-21T14:11:58.737Z,2.08
2023-03-21T14:14:14.474Z,2.55
2023-03-21T14:16:29.318Z,2.08
2023-03-21T14:18:54.100Z,2.33
2023-03-21T14:21:09.169Z,2.35
2023-03-21T14:23:19.667Z,2.13
2023-03-21T14:25:44.364Z,1.77
2023-03-21T14:27:56.544Z,2.20
2023-03-21T14:30:06.570Z,2.22
2023-03-21T14:32:21.987Z,2.30
2023-03-21T14:34:31.663Z,2.30
2023-03-21T14:36:51.745Z,2.50
2023-03-21T14:39:10.532Z,2.50
2023-03-21T14:41:25.798Z,2.50
2023-03-21T14:43:34.571Z,2.28
2023-03-21T14:45:42.783Z,2.28
2023-03-21T14:48:07.181Z,2.13
2023-03-21T14:50:15.173Z,2.03
2023-03-21T14:52:29.195Z,1.80
2023-03-21T14:54:42.592Z,2.03
2023-03-21T14:56:54.571Z,1.50
2023-03-21T14:59:02.642Z,2.80
2023-03-21T15:01:17.855Z,4.55
2023-03-21T15:03:28.189Z,4.15
2023-03-21T15:05:39.860Z,3.90
2023-03-21T15:07:56.825Z,4.10
2023-03-21T15:10:08.472Z,4.40
2023-03-21T15:12:19.086Z,3.63
2023-03-21T15:14:31.706Z,3.13
2023-03-21T15:16:40.604Z,3.13
2023-03-21T15:18:50.461Z,2.78
2023-03-21T15:21:01.408Z,3.67
2023-03-21T15:23:18.535Z,4.85
2023-03-21T15:25:31.943Z,4.90
2023-03-21T15:27:43.389Z,4.30
2023-03-21T15:29:54.291Z,5.00
2023-03-21T15:32:02.343Z,6.80
2023-03-21T15:34:16.631Z,5.20
2023-03-21T15:36:28.057Z,4.22
2023-03-21T15:38:42.720Z,6.53
2023-03-21T15:40:52.273Z,6.13
2023-03-21T15:43:16.371Z,5.30
2023-03-21T15:45:27.449Z,4.15
2023-03-21T15:47:55.245Z,5.80
2023-03-21T15:50:11.579Z,4.68
2023-03-21T15:52:19.998Z,5.80
2023-03-21T15:54:33.206Z,5.22
2023-03-21T15:56:42.534Z,6.80
2023-03-21T15:58:52.293Z,6.20
2023-03-21T16:01:08.164Z,4.40
2023-03-21T16:03:20.891Z,3.97
2023-03-21T16:05:31.679Z,3.72
2023-03-21T16:07:39.612Z,4.22
2023-03-21T16:09:50.142Z,3.72
2023-03-21T16:12:00.294Z,4.10
2023-03-21T16:14:10.929Z,3.80
2023-03-21T16:16:21.371Z,5.32
2023-03-21T16:18:29.944Z,4.70
2023-03-21T16:20:42.600Z,5.63
2023-03-21T16:22:50.672Z,5.97
2023-03-21T16:25:01.181Z,4.78
2023-03-21T16:27:09.073Z,6.80
2023-03-21T16:29:18.678Z,6.65
2023-03-21T16:31:28.938Z,5.10
2023-03-21T16:33:37.055Z,5.65
2023-03-21T16:35:44.908Z,4.97
2023-03-21T16:37:52.827Z,4.70
2023-03-21T16:40:05.931Z,3.80
2023-03-21T16:42:14.580Z,4.00
2023-03-21T16:44:23.388Z,3.42
2023-03-21T16:46:31.595Z,3.72
2023-03-21T16:48:39.814Z,3.72
2023-03-21T16:50:50.567Z,3.80
2023-03-21T16:52:59.450Z,3.80
2023-03-21T16:55:10.803Z,3.83
2023-03-21T16:57:27.879Z,3.13
2023-03-21T16:59:35.819Z,3.75
2023-03-21T17:01:46.304Z,3.55
2023-03-21T17:03:55.756Z,3.60
2023-03-21T17:06:04.858Z,4.18
2023-03-21T17:08:18.105Z,3.95
2023-03-21T17:10:31.883Z,3.42
2023-03-21T17:12:39.748Z,3.90
2023-03-21T17:14:48.244Z,3.90
2023-03-21T17:16:56.070Z,3.95
2023-03-21T17:19:04.489Z,3.72
2023-03-21T17:21:17.620Z,3.20
2023-03-21T17:23:25.679Z,3.30
2023-03-21T17:25:36.537Z,3.58
2023-03-21T17:27:44.848Z,3.42
2023-03-21T17:29:52.678Z,3.05
2023-03-21T17:32:01.200Z,3.53
2023-03-21T17:34:09.851Z,3.65
2023-03-21T17:36:19.349Z,3.50
2023-03-21T17:38:27.182Z,3.75
2023-03-21T17:40:37.970Z,4.45
2023-03-21T17:42:46.512Z,3.33
2023-03-21T17:44:54.386Z,3.55
2023-03-21T17:47:04.102Z,4.03
2023-03-21T17:49:16.502Z,3.30
2023-03-21T17:51:30.179Z,3.88
2023-03-21T17:53:38.082Z,3.88
2023-03-21T17:55:48.886Z,4.00
2023-03-21T17:57:57.004Z,4.03
2023-03-21T18:00:09.177Z,3.60
2023-03-21T18:02:20.732Z,4.03
2023-03-21T18:04:28.868Z,4.07
2023-03-21T18:06:38.501Z,4.03
2023-03-21T18:08:47.467Z,3.70
2023-03-21T18:11:00.214Z,4.30
2023-03-21T18:13:08.298Z,4.05
2023-03-21T18:15:19.215Z,4.28
2023-03-21T18:17:27.671Z,4.10
2023-03-21T18:19:38.376Z,4.03
2023-03-21T18:21:46.707Z,4.53
2023-03-21T18:23:54.675Z,3.92
2023-03-21T18:26:05.525Z,3.92
2023-03-21T18:28:13.926Z,4.15
2023-03-21T18:30:44.579Z,4.40
2023-03-21T18:32:50.900Z,4.25
2023-03-21T18:34:59.772Z,3.72
2023-03-21T18:37:08.798Z,4.00
2023-03-21T18:39:17.587Z,3.75
2023-03-21T18:41:28.331Z,4.78
2023-03-21T18:46:05.601Z,3.55
2023-03-21T18:48:13.811Z,4.25
2023-03-21T18:50:22.226Z,4.15
2023-03-21T18:52:33.065Z,3.83
2023-03-21T18:54:41.500Z,4.15
2023-03-21T18:59:22.855Z,4.55
2023-03-21T19:01:31.118Z,4.88
2023-03-21T19:03:43.031Z,5.07
2023-03-21T19:05:51.366Z,5.50
2023-03-21T19:07:59.482Z,7.10
2023-03-21T19:10:19.001Z,9.05
2023-03-21T19:12:31.353Z,9.80
2023-03-21T19:14:39.406Z,13.00
2023-03-21T19:17:34.586Z,12.73
2023-03-21T19:19:18.574Z,11.98
2023-03-21T19:21:27.583Z,12.52
2023-03-21T19:24:03.850Z,11.57
2023-03-21T19:26:03.828Z,8.90
2023-03-21T19:28:14.640Z,9.45
2023-03-21T19:30:23.185Z,7.30
2023-03-21T19:32:31.880Z,6.47
2023-03-21T19:34:40.062Z,6.55
2023-03-21T19:36:52.322Z,7.45
2023-03-21T19:39:01.906Z,8.93
2023-03-21T19:41:10.033Z,7.90
2023-03-21T19:43:32.991Z,8.68
2023-03-21T19:45:41.144Z,8.35
2023-03-21T19:47:49.531Z,7.90
2023-03-21T19:52:25.580Z,7.45
2023-03-21T19:54:34.091Z,6.93
2023-03-21T19:56:47.012Z,6.20
2023-03-21T19:58:59.868Z,5.80
2023-03-21T20:01:08.056Z,5.47
2023-03-21T20:03:20.035Z,7.07
2023-03-21T20:05:29.691Z,6.93
2023-03-21T20:07:38.093Z,8.20
2023-03-21T20:09:55.946Z,8.43
2023-03-21T20:12:05.941Z,8.07
2023-03-21T20:14:16.873Z,8.65
2023-03-21T20:16:25.204Z,7.85
2023-03-21T20:18:35.084Z,8.60
2023-03-21T20:20:43.384Z,7.88
2023-03-21T20:23:06.404Z,8.85
2023-03-21T20:25:16.722Z,7.47
2023-03-21T20:27:26.205Z,7.80
2023-03-21T20:32:10.656Z,7.68
2023-03-21T20:34:18.654Z,7.50
2023-03-21T20:36:39.425Z,7.32
2023-03-21T20:38:48.379Z,7.80
2023-03-21T20:40:56.310Z,7.93
2023-03-21T20:43:33.464Z,7.90
2023-03-21T20:45:36.422Z,7.85
2023-03-21T20:47:45.507Z,8.73
2023-03-21T20:49:56.902Z,6.50
2023-03-21T20:54:35.031Z,5.70
2023-03-21T20:56:55.536Z,6.90
2023-03-21T20:59:16.141Z,5.65
2023-03-21T21:01:31.597Z,8.57
2023-03-21T21:03:43.689Z,7.07
2023-03-21T21:05:51.965Z,8.00
2023-03-21T21:07:59.974Z,7.53
2023-03-21T21:10:10.161Z,9.45
2023-03-21T21:12:19.666Z,8.68
2023-03-21T21:14:27.773Z,7.78
2023-03-21T21:16:38.125Z,6.95
2023-03-21T21:18:46.472Z,7.05
2023-03-21T21:20:56.688Z,7.03
2023-03-21T21:23:04.611Z,6.13
2023-03-21T21:25:12.930Z,6.72
2023-03-21T21:27:32.411Z,6.90
2023-03-21T21:29:43.346Z,6.05
2023-03-21T21:31:54.861Z,6.90
2023-03-21T21:34:03.368Z,7.40
2023-03-21T21:36:14.016Z,6.90
2023-03-21T21:38:23.051Z,7.40
2023-03-21T21:40:31.584Z,6.90
2023-03-21T21:42:39.538Z,6.90
2023-03-21T21:44:47.638Z,7.07
2023-03-21T21:46:58.473Z,7.03
2023-03-21T21:49:06.814Z,6.10
2023-03-21T21:51:17.411Z,6.45
2023-03-21T21:53:28.384Z,6.60
2023-03-21T21:55:37.353Z,6.97
2023-03-21T21:57:50.306Z,6.47
2023-03-21T21:59:58.415Z,8.07
2023-03-21T22:02:09.403Z,7.60
2023-03-21T22:04:18.166Z,7.80
2023-03-21T22:06:27.366Z,7.82
2023-03-21T22:08:35.355Z,7.97
2023-03-21T22:10:43.178Z,8.43
2023-03-21T22:12:51.431Z,7.75
2023-03-21T22:14:59.209Z,8.00
2023-03-21T22:17:10.121Z,8.45
2023-03-21T22:19:18.124Z,7.68
2023-03-21T22:21:26.341Z,7.10
2023-03-21T22:23:34.513Z,7.40
2023-03-21T22:25:43.478Z,8.23
2023-03-21T22:27:51.300Z,7.35
2023-03-21T22:30:04.488Z,8.00
2023-03-21T22:32:15.031Z,7.80
2023-03-21T22:34:23.680Z,8.82
2023-03-21T22:36:31.773Z,8.50
2023-03-21T22:38:42.144Z,8.93
2023-03-21T22:40:56.679Z,9.02
2023-03-21T22:43:04.933Z,8.73
2023-03-21T22:45:15.100Z,8.88
2023-03-21T22:47:25.694Z,8.70
2023-03-21T22:49:34.728Z,8.45
2023-03-21T22:51:42.503Z,8.57
2023-03-21T22:53:50.340Z,8.93
2023-03-21T22:55:58.413Z,10.38
2023-03-21T22:58:06.596Z,9.32
2023-03-21T23:00:16.339Z,9.07
2023-03-21T23:02:27.261Z,9.35
2023-03-21T23:04:35.167Z,8.85
2023-03-21T23:06:43.069Z,9.05
2023-03-21T23:08:50.839Z,9.63
2023-03-21T23:10:58.949Z,8.65
2023-03-21T23:13:06.903Z,9.15
2023-03-21T23:15:15.025Z,9.95
2023-03-21T23:17:23.057Z,11.70
2023-03-21T23:19:33.886Z,10.35
2023-03-21T23:21:44.475Z,10.15
2023-03-21T23:23:54.090Z,10.07
2023-03-21T23:26:01.891Z,10.38
2023-03-21T23:28:09.791Z,10.20
2023-03-21T23:30:17.968Z,10.80
2023-03-21T23:32:26.190Z,9.93
2023-03-21T23:34:36.814Z,9.05
2023-03-21T23:36:44.880Z,9.75
2023-03-21T23:38:53.164Z,9.40
2023-03-21T23:41:04.137Z,10.70
2023-03-21T23:43:12.303Z,8.93
2023-03-21T23:45:20.748Z,9.15
2023-03-21T23:47:28.696Z,9.85
2023-03-21T23:49:40.877Z,9.40
2023-03-21T23:51:50.229Z,9.88
2023-03-21T23:53:58.678Z,12.00
2023-03-21T23:56:14.047Z,10.25
2023-03-21T23:58:23.414Z,9.45
